Terminal Aerodrome Forecast
Issued by NWS

Home | Current Version | Previous Version | Text Only | Print | Product List | Glossary On
Versions: 1 2 3 4 5 6 7 8 9 10 11 12 13 14 15 16
000
FTUS44 KLZK 292300
TAFHOT
TAF
KHOT 292339Z 3000/3024 21004KT P6SM VCTS SCT040CB BKN100
     FM300400 16003KT P6SM SCT100 BKN250
     FM301500 18005KT P6SM VCTS SCT035CB BKN250
      AMD NOT SKED=

USA.gov is the U.S. government's official web portal to all federal, state and local government web resources and services.